LHA2138 LIMJ-EDDP
Flight info
| Callsign | LHA2138 |
|---|---|
| Flight time | 1h 53m |
| Altitude | 24000 |
| Route | ITCAP DCT OSKOR DCT TAGIP/N0311F250 DCT BRENO/N0332F240 M726 LASGA T953 VOCIM T954 GOXLI GOXL1V |
| Aircraft | DH8D/M-SDE1E2FGIJ1RWYZ/S |
Departure
| Time | 2026-05-06 11:43 |
|---|---|
| Airport | Genoa Cristoforo Colombo Airport (LIMJ) |
Arrival
| Time | 2026-05-06 13:36 |
|---|---|
| Airport | Leipzig/Halle Airport (EDDP) |
| Time | Latitude | Longitude | Altitude | Speed | Heading |
|---|---|---|---|---|---|
| 2026-05-06 11:11 | 44.41290 | 8.85031 | 20 ft | 0 kts | 195° |
| 2026-05-06 11:37 | 44.41288 | 8.85031 | 20 ft | 0 kts | 201° |
| 2026-05-06 11:38 | 44.41283 | 8.85020 | 20 ft | 2 kts | 258° |
| 2026-05-06 11:38 | 44.41289 | 8.84971 | 20 ft | 7 kts | 274° |
| 2026-05-06 11:38 | 44.41243 | 8.84923 | 20 ft | 10 kts | 200° |
| 2026-05-06 11:38 | 44.41225 | 8.84828 | 20 ft | 13 kts | 284° |
| 2026-05-06 11:39 | 44.41250 | 8.84689 | 20 ft | 15 kts | 285° |
| 2026-05-06 11:39 | 44.41281 | 8.84533 | 20 ft | 17 kts | 286° |
| 2026-05-06 11:39 | 44.41316 | 8.84358 | 20 ft | 19 kts | 285° |
| 2026-05-06 11:39 | 44.41352 | 8.84170 | 20 ft | 20 kts | 284° |
| 2026-05-06 11:40 | 44.41387 | 8.83974 | 20 ft | 21 kts | 285° |
| 2026-05-06 11:40 | 44.41427 | 8.83773 | 20 ft | 22 kts | 286° |
| 2026-05-06 11:40 | 44.41469 | 8.83564 | 20 ft | 21 kts | 285° |
| 2026-05-06 11:40 | 44.41508 | 8.83355 | 20 ft | 22 kts | 285° |
| 2026-05-06 11:41 | 44.41552 | 8.83143 | 20 ft | 23 kts | 285° |
| 2026-05-06 11:41 | 44.41595 | 8.82924 | 20 ft | 23 kts | 286° |
| 2026-05-06 11:41 | 44.41638 | 8.82705 | 20 ft | 23 kts | 285° |
| 2026-05-06 11:41 | 44.41653 | 8.82542 | 20 ft | 10 kts | 238° |
| 2026-05-06 11:42 | 44.41581 | 8.82499 | 20 ft | 13 kts | 190° |
| 2026-05-06 11:42 | 44.41523 | 8.82523 | 20 ft | 0 kts | 115° |
| 2026-05-06 11:42 | 44.41507 | 8.82585 | 20 ft | 35 kts | 106° |
| 2026-05-06 11:42 | 44.41363 | 8.83332 | 20 ft | 118 kts | 106° |
| 2026-05-06 11:43 | 44.41112 | 8.84579 | 289 ft | 137 kts | 110° |
| 2026-05-06 11:43 | 44.40924 | 8.85935 | 605 ft | 157 kts | 106° |
| 2026-05-06 11:43 | 44.40603 | 8.87410 | 1111 ft | 161 kts | 121° |
| 2026-05-06 11:44 | 44.38634 | 8.88947 | 2020 ft | 175 kts | 164° |
| 2026-05-06 11:44 | 44.37490 | 8.89494 | 2556 ft | 176 kts | 164° |
| 2026-05-06 11:44 | 44.36313 | 8.90042 | 3073 ft | 179 kts | 164° |
| 2026-05-06 11:44 | 44.35144 | 8.90581 | 3598 ft | 181 kts | 165° |
| 2026-05-06 11:45 | 44.33949 | 8.91128 | 4134 ft | 184 kts | 165° |
| 2026-05-06 11:45 | 44.32727 | 8.91685 | 4675 ft | 186 kts | 165° |
| 2026-05-06 11:45 | 44.31511 | 8.92236 | 5208 ft | 188 kts | 165° |
| 2026-05-06 11:45 | 44.30260 | 8.92801 | 5740 ft | 191 kts | 165° |
| 2026-05-06 11:46 | 44.28999 | 8.93370 | 6265 ft | 193 kts | 165° |
| 2026-05-06 11:46 | 44.27692 | 8.93657 | 6735 ft | 191 kts | 195° |
| 2026-05-06 11:46 | 44.26535 | 8.92851 | 7204 ft | 189 kts | 217° |
| 2026-05-06 11:46 | 44.25434 | 8.91816 | 7719 ft | 191 kts | 216° |
| 2026-05-06 11:47 | 44.24343 | 8.90786 | 8215 ft | 193 kts | 217° |
| 2026-05-06 11:47 | 44.23229 | 8.89724 | 8707 ft | 196 kts | 217° |
| 2026-05-06 11:47 | 44.22112 | 8.88654 | 9189 ft | 198 kts | 217° |
| 2026-05-06 11:47 | 44.20967 | 8.87553 | 9671 ft | 200 kts | 217° |
| 2026-05-06 11:48 | 44.19830 | 8.86458 | 10141 ft | 203 kts | 217° |
| 2026-05-06 11:48 | 44.18664 | 8.85333 | 10603 ft | 205 kts | 218° |
| 2026-05-06 11:48 | 44.17500 | 8.84210 | 11046 ft | 207 kts | 217° |
| 2026-05-06 11:48 | 44.16305 | 8.83057 | 11483 ft | 210 kts | 217° |
| 2026-05-06 11:49 | 44.15051 | 8.81839 | 11585 ft | 230 kts | 217° |
| 2026-05-06 11:49 | 44.13851 | 8.80302 | 11670 ft | 244 kts | 242° |
| 2026-05-06 11:49 | 44.13485 | 8.78056 | 12008 ft | 242 kts | 273° |
| 2026-05-06 11:49 | 44.13572 | 8.75672 | 12433 ft | 245 kts | 275° |
| 2026-05-06 11:50 | 44.13661 | 8.73344 | 12889 ft | 246 kts | 275° |
| 2026-05-06 11:50 | 44.13755 | 8.70946 | 13339 ft | 247 kts | 276° |
| 2026-05-06 11:50 | 44.14163 | 8.68687 | 13696 ft | 246 kts | 303° |
| 2026-05-06 11:50 | 44.15460 | 8.67209 | 14036 ft | 247 kts | 340° |
| 2026-05-06 11:51 | 44.17157 | 8.66935 | 14409 ft | 250 kts | 358° |
| 2026-05-06 11:51 | 44.18916 | 8.66971 | 14800 ft | 252 kts | 359° |
| 2026-05-06 11:51 | 44.20668 | 8.67034 | 15188 ft | 253 kts | 359° |
| 2026-05-06 11:51 | 44.22433 | 8.67136 | 15559 ft | 255 kts | 3° |
| 2026-05-06 11:52 | 44.24090 | 8.67989 | 15831 ft | 265 kts | 35° |
| 2026-05-06 11:52 | 44.25264 | 8.69994 | 16151 ft | 272 kts | 54° |
| 2026-05-06 11:52 | 44.26281 | 8.72240 | 16477 ft | 274 kts | 54° |
| 2026-05-06 11:52 | 44.27291 | 8.74490 | 16807 ft | 275 kts | 54° |
| 2026-05-06 11:53 | 44.28301 | 8.76742 | 17126 ft | 277 kts | 54° |
| 2026-05-06 11:53 | 44.29330 | 8.79034 | 17440 ft | 278 kts | 54° |
| 2026-05-06 11:53 | 44.30356 | 8.81317 | 17746 ft | 280 kts | 54° |
| 2026-05-06 11:53 | 44.31387 | 8.83609 | 18045 ft | 281 kts | 54° |
| 2026-05-06 11:54 | 44.32436 | 8.85942 | 18339 ft | 283 kts | 53° |
| 2026-05-06 11:54 | 44.33470 | 8.88241 | 18619 ft | 284 kts | 53° |
| 2026-05-06 11:54 | 44.34531 | 8.90599 | 18900 ft | 286 kts | 53° |
| 2026-05-06 11:54 | 44.35585 | 8.92944 | 19172 ft | 287 kts | 53° |
| 2026-05-06 11:55 | 44.36644 | 8.95302 | 19438 ft | 288 kts | 53° |
| 2026-05-06 11:55 | 44.37711 | 8.97679 | 19699 ft | 289 kts | 53° |
| 2026-05-06 11:55 | 44.38784 | 9.00071 | 19955 ft | 290 kts | 53° |
| 2026-05-06 11:55 | 44.39845 | 9.02437 | 20170 ft | 292 kts | 53° |
| 2026-05-06 11:56 | 44.40928 | 9.04855 | 20395 ft | 292 kts | 53° |
| 2026-05-06 11:56 | 44.42019 | 9.07246 | 20599 ft | 292 kts | 49° |
| 2026-05-06 11:56 | 44.43459 | 9.09125 | 20756 ft | 282 kts | 27° |
| 2026-05-06 11:56 | 44.45143 | 9.10525 | 20946 ft | 282 kts | 25° |
| 2026-05-06 11:57 | 44.46833 | 9.11907 | 21148 ft | 282 kts | 25° |
| 2026-05-06 11:57 | 44.48547 | 9.13308 | 21337 ft | 283 kts | 25° |
| 2026-05-06 11:57 | 44.50234 | 9.14690 | 21512 ft | 284 kts | 25° |
| 2026-05-06 11:57 | 44.51937 | 9.16090 | 21683 ft | 285 kts | 25° |
| 2026-05-06 11:58 | 44.53637 | 9.17490 | 21855 ft | 285 kts | 25° |
| 2026-05-06 11:58 | 44.55339 | 9.18894 | 22012 ft | 286 kts | 25° |
| 2026-05-06 11:58 | 44.57069 | 9.20324 | 22169 ft | 287 kts | 25° |
| 2026-05-06 11:58 | 44.58759 | 9.21722 | 22319 ft | 287 kts | 25° |
| 2026-05-06 11:59 | 44.60492 | 9.23158 | 22484 ft | 287 kts | 25° |
| 2026-05-06 11:59 | 44.62212 | 9.24585 | 22632 ft | 288 kts | 25° |
| 2026-05-06 11:59 | 44.63929 | 9.26010 | 22778 ft | 288 kts | 24° |
| 2026-05-06 11:59 | 44.65648 | 9.27438 | 22910 ft | 289 kts | 24° |
| 2026-05-06 12:00 | 44.67366 | 9.28866 | 23049 ft | 290 kts | 24° |
| 2026-05-06 12:00 | 44.69099 | 9.30308 | 23181 ft | 290 kts | 24° |
| 2026-05-06 12:00 | 44.70834 | 9.31753 | 23318 ft | 290 kts | 24° |
| 2026-05-06 12:00 | 44.72574 | 9.33203 | 23434 ft | 291 kts | 24° |
| 2026-05-06 12:01 | 44.74308 | 9.34650 | 23561 ft | 292 kts | 24° |
| 2026-05-06 12:01 | 44.76045 | 9.36099 | 23692 ft | 291 kts | 24° |
| 2026-05-06 12:01 | 44.77793 | 9.37559 | 23801 ft | 292 kts | 24° |
| 2026-05-06 12:01 | 44.79538 | 9.39017 | 23904 ft | 293 kts | 24° |
| 2026-05-06 12:02 | 44.81287 | 9.40480 | 23983 ft | 295 kts | 24° |
| 2026-05-06 12:02 | 44.83042 | 9.41949 | 23993 ft | 295 kts | 24° |
| 2026-05-06 12:02 | 44.84820 | 9.43439 | 23996 ft | 294 kts | 24° |
| 2026-05-06 12:02 | 44.86565 | 9.44902 | 23998 ft | 292 kts | 24° |
| 2026-05-06 12:03 | 44.88296 | 9.46354 | 23998 ft | 291 kts | 24° |
| 2026-05-06 12:03 | 44.90027 | 9.47806 | 23998 ft | 291 kts | 24° |
| 2026-05-06 12:03 | 44.91777 | 9.49276 | 23999 ft | 290 kts | 24° |
| 2026-05-06 12:03 | 44.93500 | 9.50724 | 23998 ft | 290 kts | 24° |
| 2026-05-06 12:04 | 44.95220 | 9.52171 | 23998 ft | 289 kts | 24° |
| 2026-05-06 12:04 | 44.96944 | 9.53622 | 23999 ft | 289 kts | 24° |
| 2026-05-06 12:04 | 44.98661 | 9.55068 | 23996 ft | 290 kts | 24° |
| 2026-05-06 12:04 | 45.00387 | 9.56522 | 23992 ft | 290 kts | 24° |
| 2026-05-06 12:05 | 45.02136 | 9.57996 | 23993 ft | 291 kts | 24° |
| 2026-05-06 12:05 | 45.03860 | 9.59451 | 23995 ft | 291 kts | 24° |
| 2026-05-06 12:05 | 45.05602 | 9.60923 | 23998 ft | 292 kts | 24° |
| 2026-05-06 12:05 | 45.07334 | 9.62386 | 23998 ft | 294 kts | 24° |
| 2026-05-06 12:06 | 45.09093 | 9.63875 | 23999 ft | 295 kts | 24° |
| 2026-05-06 12:06 | 45.10857 | 9.65368 | 23998 ft | 295 kts | 24° |
| 2026-05-06 12:06 | 45.12612 | 9.66856 | 23998 ft | 295 kts | 24° |
| 2026-05-06 12:06 | 45.14381 | 9.68355 | 23993 ft | 297 kts | 24° |
| 2026-05-06 12:07 | 45.16151 | 9.69857 | 23986 ft | 298 kts | 24° |
| 2026-05-06 12:07 | 45.17923 | 9.71360 | 23979 ft | 300 kts | 24° |
| 2026-05-06 12:07 | 45.19708 | 9.72878 | 23974 ft | 302 kts | 24° |
| 2026-05-06 12:07 | 45.21506 | 9.74407 | 23970 ft | 303 kts | 24° |
| 2026-05-06 12:08 | 45.23320 | 9.75951 | 23969 ft | 304 kts | 25° |
| 2026-05-06 12:08 | 45.25138 | 9.77499 | 23969 ft | 306 kts | 24° |
| 2026-05-06 12:08 | 45.26968 | 9.79060 | 23971 ft | 307 kts | 25° |
| 2026-05-06 12:08 | 45.28781 | 9.80607 | 23975 ft | 308 kts | 25° |
| 2026-05-06 12:09 | 45.30620 | 9.82177 | 23975 ft | 309 kts | 25° |
| 2026-05-06 12:09 | 45.32458 | 9.83747 | 23971 ft | 310 kts | 25° |
| 2026-05-06 12:09 | 45.34302 | 9.85324 | 23965 ft | 311 kts | 25° |
| 2026-05-06 12:09 | 45.36149 | 9.86904 | 23957 ft | 312 kts | 25° |
| 2026-05-06 12:10 | 45.38021 | 9.88507 | 23947 ft | 313 kts | 25° |
| 2026-05-06 12:10 | 45.39869 | 9.90091 | 23942 ft | 314 kts | 25° |
| 2026-05-06 12:10 | 45.41748 | 9.91703 | 23936 ft | 314 kts | 25° |
| 2026-05-06 12:10 | 45.43592 | 9.93286 | 23932 ft | 314 kts | 25° |
| 2026-05-06 12:11 | 45.45464 | 9.94894 | 23932 ft | 314 kts | 25° |
| 2026-05-06 12:11 | 45.47331 | 9.96500 | 23939 ft | 313 kts | 25° |
| 2026-05-06 12:11 | 45.49188 | 9.98097 | 23946 ft | 313 kts | 25° |
| 2026-05-06 12:11 | 45.51061 | 9.99710 | 23954 ft | 313 kts | 25° |
| 2026-05-06 12:12 | 45.52905 | 10.01298 | 23961 ft | 313 kts | 25° |
| 2026-05-06 12:12 | 45.54761 | 10.02899 | 23970 ft | 313 kts | 25° |
| 2026-05-06 12:12 | 45.56629 | 10.04511 | 23976 ft | 313 kts | 25° |
| 2026-05-06 12:12 | 45.58493 | 10.06121 | 23985 ft | 313 kts | 25° |
| 2026-05-06 12:13 | 45.60339 | 10.07716 | 23993 ft | 313 kts | 25° |
| 2026-05-06 12:13 | 45.62207 | 10.09332 | 23997 ft | 313 kts | 25° |
| 2026-05-06 12:13 | 45.64058 | 10.10947 | 23991 ft | 314 kts | 26° |
| 2026-05-06 12:13 | 45.65667 | 10.13056 | 23984 ft | 323 kts | 46° |
| 2026-05-06 12:14 | 45.66989 | 10.15673 | 23970 ft | 326 kts | 49° |
| 2026-05-06 12:14 | 45.68300 | 10.18323 | 23978 ft | 326 kts | 49° |
| 2026-05-06 12:14 | 45.69596 | 10.20946 | 23982 ft | 326 kts | 49° |
| 2026-05-06 12:14 | 45.70902 | 10.23586 | 23978 ft | 326 kts | 49° |
| 2026-05-06 12:15 | 45.72227 | 10.26260 | 23976 ft | 327 kts | 49° |
| 2026-05-06 12:15 | 45.73537 | 10.28903 | 23979 ft | 327 kts | 49° |
| 2026-05-06 12:15 | 45.74849 | 10.31546 | 23986 ft | 327 kts | 49° |
| 2026-05-06 12:15 | 45.76155 | 10.34180 | 23990 ft | 326 kts | 49° |
| 2026-05-06 12:16 | 45.77464 | 10.36820 | 23984 ft | 326 kts | 49° |
| 2026-05-06 12:16 | 45.78774 | 10.39462 | 23972 ft | 326 kts | 49° |
| 2026-05-06 12:16 | 45.80089 | 10.42115 | 23961 ft | 327 kts | 49° |
| 2026-05-06 12:16 | 45.81399 | 10.44762 | 23948 ft | 327 kts | 49° |
| 2026-05-06 12:17 | 45.82717 | 10.47424 | 23936 ft | 327 kts | 49° |
| 2026-05-06 12:17 | 45.84036 | 10.50092 | 23922 ft | 327 kts | 49° |
| 2026-05-06 12:17 | 45.85350 | 10.52753 | 23910 ft | 327 kts | 49° |
| 2026-05-06 12:17 | 45.86650 | 10.55386 | 23897 ft | 327 kts | 49° |
| 2026-05-06 12:18 | 45.87967 | 10.58055 | 23886 ft | 327 kts | 49° |
| 2026-05-06 12:18 | 45.89274 | 10.60709 | 23884 ft | 326 kts | 49° |
| 2026-05-06 12:18 | 45.90577 | 10.63355 | 23885 ft | 326 kts | 49° |
| 2026-05-06 12:18 | 45.91873 | 10.65991 | 23882 ft | 325 kts | 50° |
| 2026-05-06 12:19 | 45.93181 | 10.68417 | 23861 ft | 317 kts | 38° |
| 2026-05-06 12:19 | 45.94890 | 10.69991 | 23916 ft | 298 kts | 18° |
| 2026-05-06 12:19 | 45.96773 | 10.71209 | 23879 ft | 299 kts | 18° |
| 2026-05-06 12:19 | 45.98674 | 10.72434 | 23874 ft | 299 kts | 18° |
| 2026-05-06 12:20 | 46.00541 | 10.73634 | 23884 ft | 299 kts | 18° |
| 2026-05-06 12:20 | 46.02443 | 10.74857 | 23889 ft | 299 kts | 18° |
| 2026-05-06 12:20 | 46.04333 | 10.76074 | 23887 ft | 299 kts | 18° |
| 2026-05-06 12:20 | 46.06242 | 10.77306 | 23884 ft | 300 kts | 18° |
| 2026-05-06 12:21 | 46.08135 | 10.78527 | 23886 ft | 300 kts | 18° |
| 2026-05-06 12:21 | 46.10039 | 10.79758 | 23886 ft | 301 kts | 18° |
| 2026-05-06 12:21 | 46.10983 | 10.80368 | 23886 ft | 301 kts | 18° |
| 2026-05-06 12:21 | 46.13864 | 10.82234 | 23886 ft | 302 kts | 18° |
| 2026-05-06 12:22 | 46.15767 | 10.83467 | 23886 ft | 302 kts | 17° |
| 2026-05-06 12:22 | 46.17677 | 10.84705 | 23885 ft | 303 kts | 17° |
| 2026-05-06 12:22 | 46.19615 | 10.85962 | 23886 ft | 304 kts | 17° |
| 2026-05-06 12:22 | 46.21524 | 10.87202 | 23885 ft | 304 kts | 17° |
| 2026-05-06 12:23 | 46.23449 | 10.88453 | 23886 ft | 305 kts | 17° |
| 2026-05-06 12:23 | 46.25399 | 10.89722 | 23886 ft | 305 kts | 17° |
| 2026-05-06 12:23 | 46.27321 | 10.90973 | 23885 ft | 306 kts | 17° |
| 2026-05-06 12:23 | 46.29266 | 10.92241 | 23885 ft | 306 kts | 17° |
| 2026-05-06 12:24 | 46.31188 | 10.93494 | 23886 ft | 307 kts | 17° |
| 2026-05-06 12:24 | 46.33139 | 10.94768 | 23886 ft | 307 kts | 17° |
| 2026-05-06 12:24 | 46.35076 | 10.96033 | 23885 ft | 307 kts | 17° |
| 2026-05-06 12:24 | 46.37029 | 10.97309 | 23885 ft | 308 kts | 17° |
| 2026-05-06 12:25 | 46.38985 | 10.98589 | 23885 ft | 308 kts | 17° |
| 2026-05-06 12:25 | 46.40922 | 10.99857 | 23886 ft | 308 kts | 17° |
| 2026-05-06 12:25 | 46.42879 | 11.01139 | 23886 ft | 309 kts | 17° |
| 2026-05-06 12:25 | 46.44829 | 11.02418 | 23885 ft | 309 kts | 17° |
| 2026-05-06 12:26 | 46.46788 | 11.03703 | 23885 ft | 309 kts | 17° |
| 2026-05-06 12:26 | 46.48728 | 11.04978 | 23885 ft | 309 kts | 17° |
| 2026-05-06 12:26 | 46.50686 | 11.06264 | 23885 ft | 310 kts | 17° |
| 2026-05-06 12:26 | 46.52655 | 11.07559 | 23886 ft | 310 kts | 17° |
| 2026-05-06 12:27 | 46.54590 | 11.08833 | 23883 ft | 309 kts | 17° |
| 2026-05-06 12:27 | 46.56541 | 11.10119 | 23884 ft | 308 kts | 17° |
| 2026-05-06 12:27 | 46.58485 | 11.11401 | 23883 ft | 308 kts | 17° |
| 2026-05-06 12:27 | 46.60428 | 11.12683 | 23883 ft | 307 kts | 17° |
| 2026-05-06 12:28 | 46.62371 | 11.13966 | 23883 ft | 307 kts | 17° |
| 2026-05-06 12:28 | 46.64323 | 11.15256 | 23884 ft | 306 kts | 17° |
| 2026-05-06 12:28 | 46.66257 | 11.16535 | 23885 ft | 306 kts | 17° |
| 2026-05-06 12:28 | 46.68180 | 11.17807 | 23884 ft | 306 kts | 17° |
| 2026-05-06 12:29 | 46.70092 | 11.19074 | 23884 ft | 305 kts | 17° |
| 2026-05-06 12:29 | 46.72020 | 11.20352 | 23884 ft | 305 kts | 17° |
| 2026-05-06 12:29 | 46.73945 | 11.21629 | 23879 ft | 305 kts | 17° |
| 2026-05-06 12:29 | 46.75885 | 11.22917 | 23867 ft | 305 kts | 17° |
| 2026-05-06 12:30 | 46.77802 | 11.24190 | 23855 ft | 304 kts | 17° |
| 2026-05-06 12:30 | 46.79722 | 11.25467 | 23842 ft | 304 kts | 17° |
| 2026-05-06 12:30 | 46.81627 | 11.26735 | 23829 ft | 304 kts | 17° |
| 2026-05-06 12:30 | 46.83535 | 11.28006 | 23815 ft | 303 kts | 17° |
| 2026-05-06 12:31 | 46.85468 | 11.29295 | 23802 ft | 302 kts | 17° |
| 2026-05-06 12:31 | 46.87380 | 11.30570 | 23790 ft | 302 kts | 17° |
| 2026-05-06 12:31 | 46.89269 | 11.31832 | 23777 ft | 301 kts | 16° |
| 2026-05-06 12:31 | 46.91169 | 11.33101 | 23775 ft | 300 kts | 16° |
| 2026-05-06 12:32 | 46.93041 | 11.34353 | 23773 ft | 299 kts | 15° |
| 2026-05-06 12:32 | 46.94923 | 11.35612 | 23772 ft | 298 kts | 15° |
| 2026-05-06 12:32 | 46.96798 | 11.36867 | 23773 ft | 297 kts | 14° |
| 2026-05-06 12:32 | 46.98718 | 11.37779 | 23754 ft | 281 kts | 357° |
| 2026-05-06 12:33 | 47.00631 | 11.38011 | 23770 ft | 275 kts | 353° |
| 2026-05-06 12:33 | 47.02534 | 11.38184 | 23780 ft | 274 kts | 352° |
| 2026-05-06 12:33 | 47.04416 | 11.38355 | 23777 ft | 274 kts | 352° |
| 2026-05-06 12:33 | 47.06327 | 11.38534 | 23775 ft | 273 kts | 352° |
| 2026-05-06 12:34 | 47.08205 | 11.38712 | 23774 ft | 273 kts | 352° |
| 2026-05-06 12:34 | 47.10054 | 11.38891 | 23776 ft | 272 kts | 352° |
| 2026-05-06 12:34 | 47.11971 | 11.39079 | 23776 ft | 272 kts | 352° |
| 2026-05-06 12:34 | 47.13842 | 11.39263 | 23776 ft | 271 kts | 352° |
| 2026-05-06 12:35 | 47.15721 | 11.39449 | 23776 ft | 271 kts | 352° |
| 2026-05-06 12:35 | 47.17587 | 11.39635 | 23777 ft | 271 kts | 352° |
| 2026-05-06 12:35 | 47.19472 | 11.39824 | 23776 ft | 270 kts | 352° |
| 2026-05-06 12:35 | 47.21347 | 11.40012 | 23776 ft | 270 kts | 352° |
| 2026-05-06 12:36 | 47.23224 | 11.40200 | 23776 ft | 270 kts | 351° |
| 2026-05-06 12:36 | 47.25067 | 11.40276 | 23776 ft | 266 kts | 348° |
| 2026-05-06 12:36 | 47.26914 | 11.40262 | 23776 ft | 265 kts | 347° |
| 2026-05-06 12:36 | 47.28741 | 11.40247 | 23776 ft | 265 kts | 348° |
| 2026-05-06 12:37 | 47.30586 | 11.40237 | 23775 ft | 265 kts | 348° |
| 2026-05-06 12:37 | 47.32407 | 11.40231 | 23776 ft | 264 kts | 348° |
| 2026-05-06 12:37 | 47.34242 | 11.40228 | 23776 ft | 264 kts | 348° |
| 2026-05-06 12:37 | 47.36077 | 11.40227 | 23776 ft | 264 kts | 348° |
| 2026-05-06 12:38 | 47.37900 | 11.40228 | 23777 ft | 264 kts | 348° |
| 2026-05-06 12:38 | 47.39728 | 11.40225 | 23776 ft | 263 kts | 347° |
| 2026-05-06 12:38 | 47.41551 | 11.40202 | 23779 ft | 265 kts | 347° |
| 2026-05-06 12:38 | 47.43395 | 11.40176 | 23780 ft | 267 kts | 347° |
| 2026-05-06 12:39 | 47.45254 | 11.40151 | 23779 ft | 268 kts | 347° |
| 2026-05-06 12:39 | 47.47141 | 11.40127 | 23780 ft | 270 kts | 348° |
| 2026-05-06 12:39 | 47.49002 | 11.40104 | 23779 ft | 272 kts | 348° |
| 2026-05-06 12:39 | 47.50914 | 11.40082 | 23779 ft | 274 kts | 348° |
| 2026-05-06 12:40 | 47.52808 | 11.40060 | 23779 ft | 275 kts | 348° |
| 2026-05-06 12:40 | 47.54723 | 11.40039 | 23779 ft | 277 kts | 348° |
| 2026-05-06 12:40 | 47.56661 | 11.40017 | 23779 ft | 279 kts | 348° |
| 2026-05-06 12:40 | 47.58602 | 11.39996 | 23780 ft | 280 kts | 348° |
| 2026-05-06 12:41 | 47.60531 | 11.39974 | 23780 ft | 282 kts | 348° |
| 2026-05-06 12:41 | 47.62499 | 11.39951 | 23779 ft | 283 kts | 348° |
| 2026-05-06 12:41 | 47.64445 | 11.39778 | 23779 ft | 281 kts | 343° |
| 2026-05-06 12:41 | 47.66401 | 11.39488 | 23778 ft | 282 kts | 343° |
| 2026-05-06 12:42 | 47.68364 | 11.39197 | 23779 ft | 284 kts | 343° |
| 2026-05-06 12:42 | 47.70314 | 11.38914 | 23780 ft | 286 kts | 343° |
| 2026-05-06 12:42 | 47.72311 | 11.38629 | 23779 ft | 287 kts | 343° |
| 2026-05-06 12:42 | 47.74281 | 11.38352 | 23779 ft | 289 kts | 344° |
| 2026-05-06 12:43 | 47.76287 | 11.38073 | 23779 ft | 291 kts | 344° |
| 2026-05-06 12:43 | 47.78298 | 11.37794 | 23778 ft | 292 kts | 344° |
| 2026-05-06 12:43 | 47.80316 | 11.37516 | 23778 ft | 294 kts | 344° |
| 2026-05-06 12:43 | 47.82346 | 11.37238 | 23780 ft | 295 kts | 344° |
| 2026-05-06 12:44 | 47.84392 | 11.36958 | 23779 ft | 296 kts | 344° |
| 2026-05-06 12:44 | 47.86448 | 11.36684 | 23778 ft | 298 kts | 345° |
| 2026-05-06 12:44 | 47.88517 | 11.36493 | 23778 ft | 301 kts | 346° |
| 2026-05-06 12:44 | 47.90615 | 11.36327 | 23778 ft | 302 kts | 346° |
| 2026-05-06 12:45 | 47.92717 | 11.36159 | 23778 ft | 303 kts | 346° |
| 2026-05-06 12:45 | 47.94812 | 11.35989 | 23778 ft | 304 kts | 346° |
| 2026-05-06 12:45 | 47.99031 | 11.35640 | 23778 ft | 305 kts | 346° |
| 2026-05-06 12:46 | 48.01141 | 11.35463 | 23778 ft | 306 kts | 346° |
| 2026-05-06 12:46 | 48.03280 | 11.35283 | 23777 ft | 307 kts | 346° |
| 2026-05-06 12:46 | 48.05381 | 11.35106 | 23777 ft | 307 kts | 346° |
| 2026-05-06 12:46 | 48.07532 | 11.34913 | 23777 ft | 307 kts | 345° |
| 2026-05-06 12:47 | 48.09635 | 11.34551 | 23778 ft | 304 kts | 342° |
| 2026-05-06 12:47 | 48.11715 | 11.34121 | 23777 ft | 304 kts | 342° |
| 2026-05-06 12:47 | 48.13827 | 11.33687 | 23777 ft | 305 kts | 342° |
| 2026-05-06 12:47 | 48.15927 | 11.33261 | 23776 ft | 305 kts | 342° |
| 2026-05-06 12:48 | 48.18026 | 11.32840 | 23777 ft | 305 kts | 342° |
| 2026-05-06 12:48 | 48.20101 | 11.32426 | 23776 ft | 304 kts | 342° |
| 2026-05-06 12:48 | 48.22197 | 11.32010 | 23776 ft | 304 kts | 342° |
| 2026-05-06 12:48 | 48.24293 | 11.31596 | 23776 ft | 304 kts | 342° |
| 2026-05-06 12:49 | 48.26375 | 11.31185 | 23776 ft | 304 kts | 342° |
| 2026-05-06 12:49 | 48.28464 | 11.30814 | 23776 ft | 305 kts | 343° |
| 2026-05-06 12:49 | 48.30578 | 11.30486 | 23776 ft | 305 kts | 344° |
| 2026-05-06 12:49 | 48.32670 | 11.30163 | 23776 ft | 304 kts | 344° |
| 2026-05-06 12:50 | 48.34788 | 11.29835 | 23776 ft | 304 kts | 344° |
| 2026-05-06 12:50 | 48.36886 | 11.29508 | 23776 ft | 304 kts | 344° |
| 2026-05-06 12:50 | 48.38955 | 11.29184 | 23776 ft | 303 kts | 344° |
| 2026-05-06 12:50 | 48.41051 | 11.28855 | 23776 ft | 303 kts | 344° |
| 2026-05-06 12:51 | 48.43148 | 11.28525 | 23775 ft | 302 kts | 343° |
| 2026-05-06 12:51 | 48.45232 | 11.28196 | 23776 ft | 302 kts | 343° |
| 2026-05-06 12:51 | 48.47312 | 11.27867 | 23776 ft | 301 kts | 343° |
| 2026-05-06 12:51 | 48.49380 | 11.27540 | 23776 ft | 301 kts | 343° |
| 2026-05-06 12:52 | 48.51467 | 11.27209 | 23776 ft | 300 kts | 343° |
| 2026-05-06 12:52 | 48.53510 | 11.26885 | 23776 ft | 299 kts | 343° |
| 2026-05-06 12:52 | 48.55575 | 11.26557 | 23775 ft | 298 kts | 343° |
| 2026-05-06 12:52 | 48.57653 | 11.26226 | 23775 ft | 298 kts | 343° |
| 2026-05-06 12:53 | 48.59701 | 11.25900 | 23776 ft | 297 kts | 343° |
| 2026-05-06 12:53 | 48.61753 | 11.25573 | 23776 ft | 297 kts | 343° |
| 2026-05-06 12:53 | 48.63789 | 11.25248 | 23776 ft | 296 kts | 343° |
| 2026-05-06 12:53 | 48.65826 | 11.24922 | 23776 ft | 295 kts | 343° |
| 2026-05-06 12:54 | 48.67858 | 11.24596 | 23776 ft | 295 kts | 343° |
| 2026-05-06 12:54 | 48.69888 | 11.24271 | 23775 ft | 294 kts | 343° |
| 2026-05-06 12:54 | 48.71936 | 11.23942 | 23776 ft | 294 kts | 343° |
| 2026-05-06 12:54 | 48.73959 | 11.23617 | 23776 ft | 294 kts | 343° |
| 2026-05-06 12:55 | 48.75983 | 11.23291 | 23776 ft | 293 kts | 343° |
| 2026-05-06 12:55 | 48.77991 | 11.22968 | 23775 ft | 293 kts | 343° |
| 2026-05-06 12:55 | 48.80021 | 11.22641 | 23777 ft | 292 kts | 343° |
| 2026-05-06 12:55 | 48.82035 | 11.22316 | 23776 ft | 292 kts | 343° |
| 2026-05-06 12:56 | 48.84059 | 11.21995 | 23776 ft | 293 kts | 344° |
| 2026-05-06 12:56 | 48.86095 | 11.21883 | 23779 ft | 297 kts | 349° |
| 2026-05-06 12:56 | 48.88141 | 11.21901 | 23776 ft | 297 kts | 349° |
| 2026-05-06 12:56 | 48.90225 | 11.21924 | 23775 ft | 297 kts | 349° |
| 2026-05-06 12:57 | 48.92261 | 11.21945 | 23777 ft | 297 kts | 349° |
| 2026-05-06 12:57 | 48.94338 | 11.21963 | 23776 ft | 296 kts | 349° |
| 2026-05-06 12:57 | 48.96376 | 11.21980 | 23776 ft | 296 kts | 349° |
| 2026-05-06 12:57 | 48.98450 | 11.21995 | 23776 ft | 296 kts | 349° |
| 2026-05-06 12:58 | 49.00498 | 11.22010 | 23776 ft | 296 kts | 349° |
| 2026-05-06 12:58 | 49.02539 | 11.22023 | 23776 ft | 295 kts | 349° |
| 2026-05-06 12:58 | 49.04590 | 11.22036 | 23776 ft | 295 kts | 349° |
| 2026-05-06 12:58 | 49.06636 | 11.22049 | 23776 ft | 295 kts | 349° |
| 2026-05-06 12:59 | 49.08690 | 11.22061 | 23776 ft | 295 kts | 349° |
| 2026-05-06 12:59 | 49.10745 | 11.22072 | 23775 ft | 295 kts | 349° |
| 2026-05-06 12:59 | 49.12791 | 11.22084 | 23775 ft | 295 kts | 349° |
| 2026-05-06 12:59 | 49.14823 | 11.22096 | 23777 ft | 295 kts | 349° |
| 2026-05-06 13:00 | 49.16862 | 11.22108 | 23777 ft | 295 kts | 349° |
| 2026-05-06 13:00 | 49.18922 | 11.22119 | 23777 ft | 295 kts | 349° |
| 2026-05-06 13:00 | 49.20968 | 11.22131 | 23777 ft | 295 kts | 349° |
| 2026-05-06 13:00 | 49.23014 | 11.22144 | 23777 ft | 295 kts | 349° |
| 2026-05-06 13:01 | 49.25070 | 11.22161 | 23777 ft | 296 kts | 349° |
| 2026-05-06 13:01 | 49.27116 | 11.22177 | 23777 ft | 296 kts | 349° |
| 2026-05-06 13:01 | 49.29181 | 11.22195 | 23777 ft | 296 kts | 349° |
| 2026-05-06 13:01 | 49.31215 | 11.22212 | 23777 ft | 296 kts | 349° |
| 2026-05-06 13:02 | 49.33273 | 11.22228 | 23777 ft | 297 kts | 349° |
| 2026-05-06 13:02 | 49.35347 | 11.22245 | 23777 ft | 297 kts | 349° |
| 2026-05-06 13:02 | 49.37409 | 11.22262 | 23777 ft | 297 kts | 349° |
| 2026-05-06 13:02 | 49.39456 | 11.22279 | 23777 ft | 297 kts | 349° |
| 2026-05-06 13:03 | 49.41518 | 11.22296 | 23776 ft | 298 kts | 349° |
| 2026-05-06 13:03 | 49.43580 | 11.22313 | 23777 ft | 298 kts | 349° |
| 2026-05-06 13:03 | 49.45647 | 11.22330 | 23777 ft | 298 kts | 349° |
| 2026-05-06 13:03 | 49.47712 | 11.22347 | 23777 ft | 298 kts | 349° |
| 2026-05-06 13:04 | 49.49800 | 11.22364 | 23776 ft | 298 kts | 349° |
| 2026-05-06 13:04 | 49.51874 | 11.22381 | 23776 ft | 298 kts | 349° |
| 2026-05-06 13:04 | 49.53925 | 11.22398 | 23777 ft | 299 kts | 349° |
| 2026-05-06 13:04 | 49.56012 | 11.22414 | 23777 ft | 299 kts | 349° |
| 2026-05-06 13:05 | 49.58074 | 11.22419 | 23777 ft | 299 kts | 349° |
| 2026-05-06 13:05 | 49.60150 | 11.22422 | 23777 ft | 299 kts | 349° |
| 2026-05-06 13:05 | 49.62227 | 11.22425 | 23777 ft | 299 kts | 349° |
| 2026-05-06 13:05 | 49.64309 | 11.22428 | 23777 ft | 299 kts | 349° |
| 2026-05-06 13:06 | 49.66380 | 11.22432 | 23777 ft | 299 kts | 349° |
| 2026-05-06 13:06 | 49.68440 | 11.22435 | 23777 ft | 299 kts | 349° |
| 2026-05-06 13:06 | 49.70523 | 11.22439 | 23777 ft | 299 kts | 349° |
| 2026-05-06 13:06 | 49.72599 | 11.22443 | 23777 ft | 299 kts | 349° |
| 2026-05-06 13:07 | 49.74672 | 11.22447 | 23777 ft | 300 kts | 349° |
| 2026-05-06 13:07 | 49.76743 | 11.22451 | 23776 ft | 300 kts | 349° |
| 2026-05-06 13:07 | 49.78826 | 11.22458 | 23777 ft | 300 kts | 349° |
| 2026-05-06 13:07 | 49.80927 | 11.22471 | 23777 ft | 300 kts | 349° |
| 2026-05-06 13:08 | 49.82988 | 11.22484 | 23777 ft | 300 kts | 349° |
| 2026-05-06 13:08 | 49.85080 | 11.22497 | 23777 ft | 300 kts | 349° |
| 2026-05-06 13:08 | 49.87161 | 11.22509 | 23777 ft | 300 kts | 349° |
| 2026-05-06 13:08 | 49.89238 | 11.22522 | 23777 ft | 301 kts | 349° |
| 2026-05-06 13:09 | 49.91339 | 11.22534 | 23777 ft | 301 kts | 349° |
| 2026-05-06 13:09 | 49.93406 | 11.22546 | 23777 ft | 301 kts | 349° |
| 2026-05-06 13:09 | 49.95506 | 11.22559 | 23779 ft | 301 kts | 349° |
| 2026-05-06 13:09 | 49.97603 | 11.22571 | 23783 ft | 301 kts | 349° |
| 2026-05-06 13:10 | 49.99683 | 11.22584 | 23785 ft | 301 kts | 349° |
| 2026-05-06 13:10 | 50.01776 | 11.22596 | 23787 ft | 301 kts | 349° |
| 2026-05-06 13:10 | 50.03844 | 11.22608 | 23790 ft | 301 kts | 349° |
| 2026-05-06 13:10 | 50.05926 | 11.22620 | 23793 ft | 301 kts | 349° |
| 2026-05-06 13:11 | 50.08033 | 11.22633 | 23796 ft | 301 kts | 349° |
| 2026-05-06 13:11 | 50.10035 | 11.22645 | 23797 ft | 301 kts | 349° |
| 2026-05-06 13:11 | 50.12168 | 11.22659 | 23795 ft | 300 kts | 349° |
| 2026-05-06 13:11 | 50.14246 | 11.22671 | 23796 ft | 300 kts | 349° |
| 2026-05-06 13:12 | 50.16333 | 11.22745 | 23789 ft | 306 kts | 355° |
| 2026-05-06 13:12 | 50.18389 | 11.23883 | 23801 ft | 328 kts | 22° |
| 2026-05-06 13:12 | 50.20273 | 11.25953 | 23790 ft | 334 kts | 27° |
| 2026-05-06 13:12 | 50.22140 | 11.28118 | 23801 ft | 335 kts | 27° |
| 2026-05-06 13:13 | 50.24010 | 11.30304 | 23809 ft | 335 kts | 27° |
| 2026-05-06 13:13 | 50.25852 | 11.32460 | 23807 ft | 335 kts | 27° |
| 2026-05-06 13:13 | 50.27726 | 11.34659 | 23804 ft | 336 kts | 27° |
| 2026-05-06 13:13 | 50.29602 | 11.36861 | 23803 ft | 337 kts | 27° |
| 2026-05-06 13:14 | 50.31470 | 11.39057 | 23804 ft | 337 kts | 27° |
| 2026-05-06 13:14 | 50.33341 | 11.41260 | 23805 ft | 338 kts | 27° |
| 2026-05-06 13:14 | 50.35214 | 11.43466 | 23805 ft | 338 kts | 27° |
| 2026-05-06 13:14 | 50.37080 | 11.45666 | 23804 ft | 339 kts | 27° |
| 2026-05-06 13:15 | 50.38958 | 11.47884 | 23804 ft | 339 kts | 27° |
| 2026-05-06 13:15 | 50.40833 | 11.50100 | 23805 ft | 340 kts | 27° |
| 2026-05-06 13:15 | 50.42718 | 11.52330 | 23798 ft | 339 kts | 27° |
| 2026-05-06 13:15 | 50.44596 | 11.54554 | 23495 ft | 342 kts | 27° |
| 2026-05-06 13:16 | 50.46494 | 11.56798 | 23130 ft | 345 kts | 28° |
| 2026-05-06 13:16 | 50.48432 | 11.59094 | 22757 ft | 347 kts | 28° |
| 2026-05-06 13:16 | 50.50355 | 11.61377 | 22386 ft | 349 kts | 28° |
| 2026-05-06 13:16 | 50.52265 | 11.63647 | 22018 ft | 349 kts | 29° |
| 2026-05-06 13:17 | 50.54205 | 11.65958 | 21637 ft | 347 kts | 30° |
| 2026-05-06 13:17 | 50.56124 | 11.68246 | 21261 ft | 346 kts | 30° |
| 2026-05-06 13:17 | 50.58036 | 11.70526 | 20887 ft | 345 kts | 31° |
| 2026-05-06 13:17 | 50.59933 | 11.72790 | 20515 ft | 344 kts | 31° |
| 2026-05-06 13:18 | 50.61818 | 11.75045 | 20144 ft | 344 kts | 31° |
| 2026-05-06 13:18 | 50.63711 | 11.77309 | 19772 ft | 343 kts | 31° |
| 2026-05-06 13:18 | 50.65619 | 11.79594 | 19396 ft | 342 kts | 32° |
| 2026-05-06 13:18 | 50.67497 | 11.81846 | 19025 ft | 342 kts | 32° |
| 2026-05-06 13:19 | 50.69394 | 11.84123 | 18650 ft | 341 kts | 32° |
| 2026-05-06 13:19 | 50.71251 | 11.86355 | 18281 ft | 340 kts | 32° |
| 2026-05-06 13:19 | 50.73136 | 11.88623 | 17906 ft | 340 kts | 33° |
| 2026-05-06 13:19 | 50.75001 | 11.90868 | 17535 ft | 339 kts | 33° |
| 2026-05-06 13:20 | 50.76881 | 11.93134 | 17159 ft | 338 kts | 33° |
| 2026-05-06 13:20 | 50.78726 | 11.95360 | 16790 ft | 337 kts | 33° |
| 2026-05-06 13:20 | 50.80588 | 11.97609 | 16415 ft | 336 kts | 34° |
| 2026-05-06 13:20 | 50.82446 | 11.99855 | 16041 ft | 335 kts | 34° |
| 2026-05-06 13:21 | 50.84273 | 12.02068 | 15672 ft | 335 kts | 34° |
| 2026-05-06 13:21 | 50.86124 | 12.04309 | 15297 ft | 334 kts | 34° |
| 2026-05-06 13:21 | 50.87968 | 12.06545 | 14922 ft | 333 kts | 34° |
| 2026-05-06 13:21 | 50.89776 | 12.08741 | 14552 ft | 332 kts | 35° |
| 2026-05-06 13:22 | 50.91609 | 12.10968 | 14166 ft | 331 kts | 36° |
| 2026-05-06 13:22 | 50.93442 | 12.13198 | 13720 ft | 331 kts | 36° |
| 2026-05-06 13:22 | 50.95247 | 12.15395 | 13277 ft | 331 kts | 36° |
| 2026-05-06 13:22 | 50.97064 | 12.17609 | 12830 ft | 330 kts | 37° |
| 2026-05-06 13:23 | 50.98875 | 12.19818 | 12383 ft | 330 kts | 37° |
| 2026-05-06 13:23 | 51.00699 | 12.22046 | 11933 ft | 329 kts | 38° |
| 2026-05-06 13:23 | 51.02495 | 12.24243 | 11486 ft | 327 kts | 38° |
| 2026-05-06 13:23 | 51.04295 | 12.26445 | 11033 ft | 325 kts | 38° |
| 2026-05-06 13:24 | 51.06065 | 12.28614 | 10589 ft | 324 kts | 37° |
| 2026-05-06 13:24 | 51.07845 | 12.30798 | 10143 ft | 324 kts | 37° |
| 2026-05-06 13:24 | 51.09605 | 12.32958 | 9904 ft | 321 kts | 37° |
| 2026-05-06 13:24 | 51.11327 | 12.35072 | 9844 ft | 322 kts | 37° |
| 2026-05-06 13:25 | 51.13103 | 12.37260 | 9832 ft | 319 kts | 37° |
| 2026-05-06 13:25 | 51.14850 | 12.39415 | 9831 ft | 319 kts | 37° |
| 2026-05-06 13:25 | 51.16609 | 12.41585 | 9828 ft | 319 kts | 37° |
| 2026-05-06 13:25 | 51.18335 | 12.43715 | 9818 ft | 316 kts | 37° |
| 2026-05-06 13:26 | 51.20057 | 12.45841 | 9804 ft | 312 kts | 37° |
| 2026-05-06 13:26 | 51.21764 | 12.47951 | 9795 ft | 305 kts | 38° |
| 2026-05-06 13:26 | 51.23425 | 12.50003 | 9801 ft | 299 kts | 37° |
| 2026-05-06 13:26 | 51.25029 | 12.52006 | 9612 ft | 293 kts | 38° |
| 2026-05-06 13:27 | 51.26640 | 12.54034 | 9257 ft | 297 kts | 37° |
| 2026-05-06 13:27 | 51.28261 | 12.56120 | 8893 ft | 301 kts | 37° |
| 2026-05-06 13:27 | 51.29876 | 12.58242 | 8512 ft | 302 kts | 38° |
| 2026-05-06 13:27 | 51.31476 | 12.60356 | 8058 ft | 295 kts | 38° |
| 2026-05-06 13:28 | 51.33024 | 12.62401 | 7607 ft | 288 kts | 37° |
| 2026-05-06 13:28 | 51.34536 | 12.64436 | 7145 ft | 281 kts | 38° |
| 2026-05-06 13:28 | 51.36023 | 12.66395 | 6688 ft | 274 kts | 38° |
| 2026-05-06 13:28 | 51.37458 | 12.68319 | 6233 ft | 268 kts | 39° |
| 2026-05-06 13:29 | 51.38872 | 12.70204 | 5778 ft | 263 kts | 39° |
| 2026-05-06 13:29 | 51.40328 | 12.71931 | 5310 ft | 256 kts | 25° |
| 2026-05-06 13:29 | 51.41984 | 12.72563 | 4849 ft | 243 kts | 355° |
| 2026-05-06 13:29 | 51.43548 | 12.71839 | 4392 ft | 231 kts | 326° |
| 2026-05-06 13:30 | 51.44605 | 12.70042 | 3941 ft | 222 kts | 298° |
| 2026-05-06 13:30 | 51.44876 | 12.67686 | 3602 ft | 211 kts | 268° |
| 2026-05-06 13:30 | 51.44871 | 12.65438 | 3338 ft | 198 kts | 276° |
| 2026-05-06 13:30 | 51.44908 | 12.63272 | 3233 ft | 193 kts | 269° |
| 2026-05-06 13:31 | 51.44839 | 12.61149 | 3191 ft | 188 kts | 270° |
| 2026-05-06 13:31 | 51.44790 | 12.59041 | 3185 ft | 188 kts | 269° |
| 2026-05-06 13:31 | 51.44705 | 12.56944 | 3188 ft | 188 kts | 268° |
| 2026-05-06 13:31 | 51.44624 | 12.54843 | 3192 ft | 189 kts | 268° |
| 2026-05-06 13:32 | 51.44535 | 12.52736 | 3199 ft | 190 kts | 269° |
| 2026-05-06 13:32 | 51.44444 | 12.50627 | 3213 ft | 190 kts | 268° |
| 2026-05-06 13:32 | 51.44352 | 12.48518 | 3161 ft | 189 kts | 269° |
| 2026-05-06 13:32 | 51.44259 | 12.46419 | 2900 ft | 187 kts | 268° |
| 2026-05-06 13:33 | 51.44167 | 12.44401 | 2608 ft | 177 kts | 268° |
| 2026-05-06 13:33 | 51.44076 | 12.42465 | 2364 ft | 169 kts | 268° |
| 2026-05-06 13:33 | 51.43993 | 12.40620 | 2213 ft | 167 kts | 269° |
| 2026-05-06 13:33 | 51.43914 | 12.38725 | 2064 ft | 168 kts | 268° |
| 2026-05-06 13:34 | 51.43835 | 12.36869 | 1795 ft | 169 kts | 268° |
| 2026-05-06 13:34 | 51.43746 | 12.35014 | 1538 ft | 162 kts | 268° |
| 2026-05-06 13:34 | 51.43665 | 12.33231 | 1312 ft | 160 kts | 268° |
| 2026-05-06 13:34 | 51.43584 | 12.31520 | 1102 ft | 143 kts | 267° |
| 2026-05-06 13:35 | 51.43513 | 12.29977 | 929 ft | 141 kts | 268° |
| 2026-05-06 13:35 | 51.43441 | 12.28382 | 741 ft | 147 kts | 268° |
| 2026-05-06 13:35 | 51.43361 | 12.26698 | 550 ft | 153 kts | 266° |
| 2026-05-06 13:35 | 51.43277 | 12.25044 | 481 ft | 143 kts | 267° |
| 2026-05-06 13:36 | 51.43230 | 12.23954 | 480 ft | 71 kts | 266° |
| 2026-05-06 13:36 | 51.43199 | 12.23248 | 480 ft | 57 kts | 264° |
| 2026-05-06 13:36 | 51.43156 | 12.22625 | 480 ft | 57 kts | 264° |
| 2026-05-06 13:36 | 51.43137 | 12.22007 | 480 ft | 46 kts | 266° |
| 2026-05-06 13:37 | 51.43097 | 12.21629 | 480 ft | 21 kts | 238° |
| 2026-05-06 13:37 | 51.43017 | 12.21490 | 480 ft | 12 kts | 225° |
| 2026-05-06 13:37 | 51.42981 | 12.21430 | 480 ft | 0 kts | 225° |
| 2026-05-06 13:38 | 51.42980 | 12.21429 | 480 ft | 1 kts | 225° |
| 2026-05-06 13:38 | 51.42957 | 12.21392 | 480 ft | 8 kts | 225° |
| 2026-05-06 13:38 | 51.42897 | 12.21300 | 480 ft | 15 kts | 217° |
| 2026-05-06 13:38 | 51.42774 | 12.21234 | 480 ft | 22 kts | 195° |
| 2026-05-06 13:39 | 51.42633 | 12.21172 | 501 ft | 21 kts | 195° |
| 2026-05-06 13:39 | 51.42489 | 12.21110 | 503 ft | 21 kts | 195° |
| 2026-05-06 13:39 | 51.42346 | 12.21049 | 496 ft | 21 kts | 197° |
| 2026-05-06 13:39 | 51.42200 | 12.20985 | 480 ft | 22 kts | 195° |
| 2026-05-06 13:40 | 51.42056 | 12.20921 | 480 ft | 21 kts | 185° |
| 2026-05-06 13:40 | 51.41967 | 12.21083 | 480 ft | 21 kts | 106° |
| 2026-05-06 13:40 | 51.41927 | 12.21317 | 480 ft | 21 kts | 105° |
| 2026-05-06 13:40 | 51.41889 | 12.21551 | 480 ft | 21 kts | 105° |
| 2026-05-06 13:41 | 51.41847 | 12.21788 | 480 ft | 22 kts | 105° |
| 2026-05-06 13:41 | 51.41806 | 12.22026 | 480 ft | 21 kts | 106° |
| 2026-05-06 13:41 | 51.41772 | 12.22223 | 480 ft | 14 kts | 104° |
| 2026-05-06 13:41 | 51.41780 | 12.22305 | 480 ft | 4 kts | 20° |
| 2026-05-06 13:42 | 51.41824 | 12.22325 | 480 ft | 8 kts | 15° |
| 2026-05-06 13:42 | 51.41848 | 12.22336 | 480 ft | 0 kts | 14° |